sensor_id;sensor_type;location;lat;lon;timestamp;pressure;altitude;pressure_sealevel;temperature;humidity
56084;BME280;41958;52.416;13.428;2022-09-09T00:03:36;100487.53;;;14.29;100.00
56084;BME280;41958;52.416;13.428;2022-09-09T00:06:10;100487.94;;;14.27;100.00
56084;BME280;41958;52.416;13.428;2022-09-09T00:08:53;100481.13;;;14.28;100.00
56084;BME280;41958;52.416;13.428;2022-09-09T00:14:03;100483.94;;;14.28;100.00
56084;BME280;41958;52.416;13.428;2022-09-09T00:16:36;100479.13;;;14.29;100.00
56084;BME280;41958;52.416;13.428;2022-09-09T00:19:38;100480.75;;;14.30;100.00
56084;BME280;41958;52.416;13.428;2022-09-09T00:22:19;100480.25;;;14.24;100.00
56084;BME280;41958;52.416;13.428;2022-09-09T00:24:47;100474.69;;;14.28;100.00
56084;BME280;41958;52.416;13.428;2022-09-09T00:27:32;100475.91;;;14.30;100.00
56084;BME280;41958;52.416;13.428;2022-09-09T00:32:47;100465.06;;;14.29;100.00
56084;BME280;41958;52.416;13.428;2022-09-09T00:35:27;100462.66;;;14.31;100.00
56084;BME280;41958;52.416;13.428;2022-09-09T00:37:58;100463.88;;;14.30;100.00
56084;BME280;41958;52.416;13.428;2022-09-09T00:40:33;100464.25;;;14.28;100.00
56084;BME280;41958;52.416;13.428;2022-09-09T00:43:16;100469.44;;;14.26;100.00
56084;BME280;41958;52.416;13.428;2022-09-09T00:51:35;100472.91;;;14.16;100.00
56084;BME280;41958;52.416;13.428;2022-09-09T00:57:27;100469.22;;;14.08;100.00
56084;BME280;41958;52.416;13.428;2022-09-09T01:03:34;100479.47;;;13.97;100.00
56084;BME280;41958;52.416;13.428;2022-09-09T01:06:13;100482.97;;;13.87;100.00
56084;BME280;41958;52.416;13.428;2022-09-09T01:08:52;100480.09;;;13.83;100.00
56084;BME280;41958;52.416;13.428;2022-09-09T01:11:33;100479.28;;;13.82;100.00
56084;BME280;41958;52.416;13.428;2022-09-09T01:14:18;100479.66;;;13.81;100.00
56084;BME280;41958;52.416;13.428;2022-09-09T01:16:45;100478.53;;;13.86;100.00
56084;BME280;41958;52.416;13.428;2022-09-09T01:19:19;100485.00;;;13.90;100.00
56084;BME280;41958;52.416;13.428;2022-09-09T01:22:15;100479.38;;;13.90;100.00
56084;BME280;41958;52.416;13.428;2022-09-09T01:25:18;100472.97;;;13.89;100.00
56084;BME280;41958;52.416;13.428;2022-09-09T01:27:46;100478.97;;;13.88;100.00
56084;BME280;41958;52.416;13.428;2022-09-09T01:30:16;100476.97;;;13.88;100.00
56084;BME280;41958;52.416;13.428;2022-09-09T01:32:44;100479.69;;;13.85;100.00
56084;BME280;41958;52.416;13.428;2022-09-09T01:35:49;100482.47;;;13.81;100.00
56084;BME280;41958;52.416;13.428;2022-09-09T01:38:16;100475.66;;;13.82;100.00
56084;BME280;41958;52.416;13.428;2022-09-09T01:40:42;100473.59;;;13.79;100.00
56084;BME280;41958;52.416;13.428;2022-09-09T01:43:08;100477.59;;;13.78;100.00
56084;BME280;41958;52.416;13.428;2022-09-09T01:45:34;100471.97;;;13.78;100.00
56084;BME280;41958;52.416;13.428;2022-09-09T01:48:00;100468.31;;;13.74;100.00
56084;BME280;41958;52.416;13.428;2022-09-09T01:50:26;100464.16;;;13.64;100.00
56084;BME280;41958;52.416;13.428;2022-09-09T01:52:56;100465.78;;;13.65;100.00
56084;BME280;41958;52.416;13.428;2022-09-09T01:55:29;100471.78;;;13.63;100.00
56084;BME280;41958;52.416;13.428;2022-09-09T01:58:08;100476.19;;;13.64;100.00
56084;BME280;41958;52.416;13.428;2022-09-09T02:00:43;100486.25;;;13.65;100.00
56084;BME280;41958;52.416;13.428;2022-09-09T02:03:23;100479.00;;;13.64;100.00
56084;BME280;41958;52.416;13.428;2022-09-09T02:05:54;100479.81;;;13.65;100.00
56084;BME280;41958;52.416;13.428;2022-09-09T02:08:31;100485.06;;;13.66;100.00
56084;BME280;41958;52.416;13.428;2022-09-09T02:11:08;100486.63;;;13.64;100.00
56084;BME280;41958;52.416;13.428;2022-09-09T02:13:37;100478.25;;;13.68;100.00
56084;BME280;41958;52.416;13.428;2022-09-09T02:16:14;100484.69;;;13.68;100.00
56084;BME280;41958;52.416;13.428;2022-09-09T02:18:50;100480.25;;;13.67;100.00
56084;BME280;41958;52.416;13.428;2022-09-09T02:21:17;100482.66;;;13.69;100.00
56084;BME280;41958;52.416;13.428;2022-09-09T02:23:43;100483.88;;;13.68;100.00
56084;BME280;41958;52.416;13.428;2022-09-09T02:26:13;100482.56;;;13.61;100.00
56084;BME280;41958;52.416;13.428;2022-09-09T02:28:45;100480.53;;;13.58;100.00
56084;BME280;41958;52.416;13.428;2022-09-09T02:31:12;100476.84;;;13.54;100.00
56084;BME280;41958;52.416;13.428;2022-09-09T02:33:42;100484.03;;;13.52;100.00
56084;BME280;41958;52.416;13.428;2022-09-09T02:36:09;100490.03;;;13.50;100.00
56084;BME280;41958;52.416;13.428;2022-09-09T02:38:40;100471.56;;;13.49;100.00
56084;BME280;41958;52.416;13.428;2022-09-09T02:41:08;100474.34;;;13.49;100.00
56084;BME280;41958;52.416;13.428;2022-09-09T02:43:34;100471.56;;;13.49;100.00
56084;BME280;41958;52.416;13.428;2022-09-09T02:46:13;100478.03;;;13.53;100.00
56084;BME280;41958;52.416;13.428;2022-09-09T02:48:51;100478.03;;;13.53;100.00
56084;BME280;41958;52.416;13.428;2022-09-09T02:51:32;100469.50;;;13.46;100.00
56084;BME280;41958;52.416;13.428;2022-09-09T02:54:10;100483.91;;;13.44;100.00
56084;BME280;41958;52.416;13.428;2022-09-09T02:56:46;100479.00;;;13.38;100.00
56084;BME280;41958;52.416;13.428;2022-09-09T02:59:15;100485.78;;;13.37;100.00
56084;BME280;41958;52.416;13.428;2022-09-09T03:01:40;100481.34;;;13.36;100.00
56084;BME280;41958;52.416;13.428;2022-09-09T03:04:06;100480.91;;;13.33;100.00
56084;BME280;41958;52.416;13.428;2022-09-09T03:06:31;100488.50;;;13.33;100.00
56084;BME280;41958;52.416;13.428;2022-09-09T03:08:56;100481.69;;;13.34;100.00
56084;BME280;41958;52.416;13.428;2022-09-09T03:11:24;100495.84;;;13.38;100.00
56084;BME280;41958;52.416;13.428;2022-09-09T03:13:49;100505.06;;;13.38;100.00
56084;BME280;41958;52.416;13.428;2022-09-09T03:16:14;100498.66;;;13.38;100.00
56084;BME280;41958;52.416;13.428;2022-09-09T03:18:40;100503.88;;;13.39;100.00
56084;BME280;41958;52.416;13.428;2022-09-09T03:21:05;100499.81;;;13.37;100.00
56084;BME280;41958;52.416;13.428;2022-09-09T03:23:32;100503.81;;;13.36;100.00
56084;BME280;41958;52.416;13.428;2022-09-09T03:25:57;100509.50;;;13.39;100.00
56084;BME280;41958;52.416;13.428;2022-09-09T03:28:23;100507.88;;;13.38;100.00
56084;BME280;41958;52.416;13.428;2022-09-09T03:30:58;100509.78;;;13.34;100.00
56084;BME280;41958;52.416;13.428;2022-09-09T03:33:23;100504.94;;;13.35;100.00
56084;BME280;41958;52.416;13.428;2022-09-09T03:35:48;100505.63;;;13.28;100.00
56084;BME280;41958;52.416;13.428;2022-09-09T03:38:14;100507.56;;;13.24;100.00
56084;BME280;41958;52.416;13.428;2022-09-09T03:40:39;100498.44;;;13.27;100.00
56084;BME280;41958;52.416;13.428;2022-09-09T03:43:04;100508.78;;;13.23;100.00
56084;BME280;41958;52.416;13.428;2022-09-09T03:45:30;100500.75;;;13.21;100.00
56084;BME280;41958;52.416;13.428;2022-09-09T03:47:55;100503.09;;;13.19;100.00
56084;BME280;41958;52.416;13.428;2022-09-09T03:50:22;100509.84;;;13.14;100.00
56084;BME280;41958;52.416;13.428;2022-09-09T03:52:48;100507.75;;;13.11;100.00
56084;BME280;41958;52.416;13.428;2022-09-09T03:55:13;100503.28;;;13.07;100.00
56084;BME280;41958;52.416;13.428;2022-09-09T03:57:38;100500.78;;;13.02;100.00
56084;BME280;41958;52.416;13.428;2022-09-09T04:00:05;100500.28;;;12.96;100.00
56084;BME280;41958;52.416;13.428;2022-09-09T04:02:31;100499.78;;;12.90;100.00
56084;BME280;41958;52.416;13.428;2022-09-09T04:04:57;100497.69;;;12.87;100.00
56084;BME280;41958;52.416;13.428;2022-09-09T04:07:22;100491.28;;;12.87;100.00
56084;BME280;41958;52.416;13.428;2022-09-09T04:09:47;100498.44;;;12.84;100.00
56084;BME280;41958;52.416;13.428;2022-09-09T04:12:13;100491.88;;;12.76;100.00
56084;BME280;41958;52.416;13.428;2022-09-09T04:14:38;100501.19;;;12.80;100.00
56084;BME280;41958;52.416;13.428;2022-09-09T04:17:03;100500.06;;;12.85;100.00
56084;BME280;41958;52.416;13.428;2022-09-09T04:19:31;100507.69;;;12.85;100.00
56084;BME280;41958;52.416;13.428;2022-09-09T04:21:56;100496.31;;;12.77;100.00
56084;BME280;41958;52.416;13.428;2022-09-09T04:24:21;100510.84;;;12.83;100.00
56084;BME280;41958;52.416;13.428;2022-09-09T04:26:48;100517.28;;;12.84;100.00
56084;BME280;41958;52.416;13.428;2022-09-09T04:29:14;100510.50;;;12.85;100.00
56084;BME280;41958;52.416;13.428;2022-09-09T04:31:39;100517.31;;;12.87;100.00
56084;BME280;41958;52.416;13.428;2022-09-09T04:34:07;100511.78;;;12.91;100.00
56084;BME280;41958;52.416;13.428;2022-09-09T04:36:33;100511.03;;;12.94;100.00
56084;BME280;41958;52.416;13.428;2022-09-09T04:38:58;100519.03;;;12.92;100.00
56084;BME280;41958;52.416;13.428;2022-09-09T04:41:23;100523.97;;;12.98;100.00
56084;BME280;41958;52.416;13.428;2022-09-09T04:43:49;100521.97;;;12.99;100.00
56084;BME280;41958;52.416;13.428;2022-09-09T04:46:15;100529.28;;;13.04;100.00
56084;BME280;41958;52.416;13.428;2022-09-09T04:48:42;100526.03;;;13.02;100.00
56084;BME280;41958;52.416;13.428;2022-09-09T04:51:11;100533.69;;;13.05;100.00
56084;BME280;41958;52.416;13.428;2022-09-09T04:53:36;100530.09;;;13.04;100.00
56084;BME280;41958;52.416;13.428;2022-09-09T04:56:10;100526.59;;;13.11;100.00
56084;BME280;41958;52.416;13.428;2022-09-09T04:58:37;100536.31;;;13.17;100.00
56084;BME280;41958;52.416;13.428;2022-09-09T05:01:04;100529.59;;;13.22;100.00
56084;BME280;41958;52.416;13.428;2022-09-09T05:03:29;100530.91;;;13.28;100.00
56084;BME280;41958;52.416;13.428;2022-09-09T05:06:02;100530.59;;;13.33;100.00
56084;BME280;41958;52.416;13.428;2022-09-09T05:08:29;100533.94;;;13.39;100.00
56084;BME280;41958;52.416;13.428;2022-09-09T05:10:54;100531.19;;;13.42;100.00
56084;BME280;41958;52.416;13.428;2022-09-09T05:13:20;100536.19;;;13.53;100.00
56084;BME280;41958;52.416;13.428;2022-09-09T05:15:52;100538.66;;;13.58;100.00
56084;BME280;41958;52.416;13.428;2022-09-09T05:18:17;100537.63;;;13.66;100.00
56084;BME280;41958;52.416;13.428;2022-09-09T05:20:43;100534.84;;;13.70;100.00
56084;BME280;41958;52.416;13.428;2022-09-09T05:23:08;100527.66;;;13.72;100.00
56084;BME280;41958;52.416;13.428;2022-09-09T05:25:35;100533.91;;;13.85;100.00
56084;BME280;41958;52.416;13.428;2022-09-09T05:28:00;100547.13;;;13.85;100.00
56084;BME280;41958;52.416;13.428;2022-09-09T05:30:26;100534.41;;;13.94;100.00
56084;BME280;41958;52.416;13.428;2022-09-09T05:32:51;100530.50;;;13.99;100.00
56084;BME280;41958;52.416;13.428;2022-09-09T05:35:16;100536.66;;;14.08;100.00
56084;BME280;41958;52.416;13.428;2022-09-09T05:37:44;100539.19;;;14.17;100.00
56084;BME280;41958;52.416;13.428;2022-09-09T05:40:11;100542.13;;;14.28;100.00
56084;BME280;41958;52.416;13.428;2022-09-09T05:42:36;100534.28;;;14.41;100.00
56084;BME280;41958;52.416;13.428;2022-09-09T05:45:01;100539.16;;;14.44;100.00
56084;BME280;41958;52.416;13.428;2022-09-09T05:47:27;100537.66;;;14.54;100.00
56084;BME280;41958;52.416;13.428;2022-09-09T05:49:54;100544.13;;;14.58;100.00
56084;BME280;41958;52.416;13.428;2022-09-09T05:52:20;100530.47;;;14.56;100.00
56084;BME280;41958;52.416;13.428;2022-09-09T05:54:45;100546.56;;;14.59;100.00
56084;BME280;41958;52.416;13.428;2022-09-09T05:57:10;100555.53;;;14.65;100.00
56084;BME280;41958;52.416;13.428;2022-09-09T05:59:36;100554.78;;;14.72;100.00
56084;BME280;41958;52.416;13.428;2022-09-09T06:02:01;100555.28;;;14.81;100.00
56084;BME280;41958;52.416;13.428;2022-09-09T06:04:26;100554.44;;;14.77;100.00
56084;BME280;41958;52.416;13.428;2022-09-09T06:06:51;100549.72;;;14.84;100.00
56084;BME280;41958;52.416;13.428;2022-09-09T06:09:17;100558.34;;;15.03;100.00
56084;BME280;41958;52.416;13.428;2022-09-09T06:11:42;100558.75;;;15.01;100.00
56084;BME280;41958;52.416;13.428;2022-09-09T06:14:08;100557.22;;;15.07;100.00
56084;BME280;41958;52.416;13.428;2022-09-09T06:16:34;100561.72;;;15.15;100.00
56084;BME280;41958;52.416;13.428;2022-09-09T06:19:00;100567.13;;;15.31;100.00
56084;BME280;41958;52.416;13.428;2022-09-09T06:21:32;100561.63;;;15.46;100.00
56084;BME280;41958;52.416;13.428;2022-09-09T06:23:58;100559.34;;;15.59;100.00
56084;BME280;41958;52.416;13.428;2022-09-09T06:26:43;100556.53;;;15.59;100.00
56084;BME280;41958;52.416;13.428;2022-09-09T06:29:10;100563.88;;;15.74;100.00
56084;BME280;41958;52.416;13.428;2022-09-09T06:31:36;100571.06;;;15.68;100.00
56084;BME280;41958;52.416;13.428;2022-09-09T06:34:04;100570.34;;;15.78;100.00
56084;BME280;41958;52.416;13.428;2022-09-09T06:36:31;100562.00;;;15.89;100.00
56084;BME280;41958;52.416;13.428;2022-09-09T06:38:57;100572.19;;;16.01;100.00
56084;BME280;41958;52.416;13.428;2022-09-09T06:41:24;100571.13;;;16.24;100.00
56084;BME280;41958;52.416;13.428;2022-09-09T06:43:51;100569.63;;;16.44;100.00
56084;BME280;41958;52.416;13.428;2022-09-09T06:46:21;100570.47;;;16.48;100.00
56084;BME280;41958;52.416;13.428;2022-09-09T06:48:47;100568.81;;;16.44;100.00
56084;BME280;41958;52.416;13.428;2022-09-09T06:51:18;100571.19;;;16.38;100.00
56084;BME280;41958;52.416;13.428;2022-09-09T06:53:45;100572.50;;;16.59;100.00
56084;BME280;41958;52.416;13.428;2022-09-09T06:58:40;100564.03;;;16.59;100.00
56084;BME280;41958;52.416;13.428;2022-09-09T07:01:14;100565.75;;;16.81;100.00
56084;BME280;41958;52.416;13.428;2022-09-09T07:03:40;100562.25;;;17.02;100.00
56084;BME280;41958;52.416;13.428;2022-09-09T07:06:09;100573.13;;;17.04;100.00
56084;BME280;41958;52.416;13.428;2022-09-09T07:08:40;100567.13;;;17.20;100.00
56084;BME280;41958;52.416;13.428;2022-09-09T07:11:07;100576.03;;;17.26;100.00
56084;BME280;41958;52.416;13.428;2022-09-09T07:13:33;100575.97;;;17.04;100.00
56084;BME280;41958;52.416;13.428;2022-09-09T07:16:06;100575.97;;;17.18;100.00
56084;BME280;41958;52.416;13.428;2022-09-09T07:18:32;100565.50;;;17.23;100.00
56084;BME280;41958;52.416;13.428;2022-09-09T07:20:58;100569.56;;;17.22;100.00
56084;BME280;41958;52.416;13.428;2022-09-09T07:23:24;100564.31;;;17.34;100.00
56084;BME280;41958;52.416;13.428;2022-09-09T07:25:49;100569.59;;;17.50;100.00
56084;BME280;41958;52.416;13.428;2022-09-09T07:28:16;100563.91;;;17.36;100.00
56084;BME280;41958;52.416;13.428;2022-09-09T07:30:41;100578.06;;;17.47;100.00
56084;BME280;41958;52.416;13.428;2022-09-09T07:33:08;100563.94;;;17.47;100.00
56084;BME280;41958;52.416;13.428;2022-09-09T07:35:34;100572.44;;;17.65;99.96
56084;BME280;41958;52.416;13.428;2022-09-09T07:38:02;100576.06;;;17.87;100.00
56084;BME280;41958;52.416;13.428;2022-09-09T07:40:28;100574.47;;;17.82;100.00
56084;BME280;41958;52.416;13.428;2022-09-09T07:42:54;100572.03;;;18.02;100.00
56084;BME280;41958;52.416;13.428;2022-09-09T07:45:19;100582.09;;;18.36;99.90
56084;BME280;41958;52.416;13.428;2022-09-09T07:47:44;100578.88;;;18.16;100.00
56084;BME280;41958;52.416;13.428;2022-09-09T07:50:10;100584.53;;;18.34;96.06
56084;BME280;41958;52.416;13.428;2022-09-09T07:52:36;100589.28;;;18.66;96.98
56084;BME280;41958;52.416;13.428;2022-09-09T07:55:02;100592.53;;;18.64;96.40
56084;BME280;41958;52.416;13.428;2022-09-09T07:57:30;100581.97;;;18.76;96.66
56084;BME280;41958;52.416;13.428;2022-09-09T07:59:56;100588.78;;;18.85;95.22
56084;BME280;41958;52.416;13.428;2022-09-09T08:02:22;100593.53;;;19.17;95.21
56084;BME280;41958;52.416;13.428;2022-09-09T08:04:48;100597.50;;;19.31;92.73
56084;BME280;41958;52.416;13.428;2022-09-09T08:07:13;100603.28;;;19.13;92.61
56084;BME280;41958;52.416;13.428;2022-09-09T08:09:39;100602.72;;;19.40;90.87
56084;BME280;41958;52.416;13.428;2022-09-09T08:12:04;100604.97;;;19.63;88.79
56084;BME280;41958;52.416;13.428;2022-09-09T08:14:33;100611.66;;;19.34;92.52
56084;BME280;41958;52.416;13.428;2022-09-09T08:16:58;100609.56;;;19.46;94.52
56084;BME280;41958;52.416;13.428;2022-09-09T08:19:25;100612.25;;;19.71;88.32
56084;BME280;41958;52.416;13.428;2022-09-09T08:21:50;100602.44;;;19.79;85.73
56084;BME280;41958;52.416;13.428;2022-09-09T08:24:16;100596.78;;;19.79;89.61
56084;BME280;41958;52.416;13.428;2022-09-09T08:26:44;100599.47;;;19.41;87.87
56084;BME280;41958;52.416;13.428;2022-09-09T08:29:11;100599.78;;;19.58;84.81
56084;BME280;41958;52.416;13.428;2022-09-09T08:31:46;100602.38;;;19.30;89.60
56084;BME280;41958;52.416;13.428;2022-09-09T08:34:12;100603.47;;;19.51;86.84
56084;BME280;41958;52.416;13.428;2022-09-09T08:36:40;100602.59;;;19.58;86.68
56084;BME280;41958;52.416;13.428;2022-09-09T08:39:07;100606.66;;;19.60;86.78
56084;BME280;41958;52.416;13.428;2022-09-09T08:41:51;100603.97;;;19.31;90.44
56084;BME280;41958;52.416;13.428;2022-09-09T08:44:31;100606.81;;;19.31;90.47
56084;BME280;41958;52.416;13.428;2022-09-09T08:50:32;100615.34;;;19.28;87.85
56084;BME280;41958;52.416;13.428;2022-09-09T08:53:17;100609.63;;;19.35;87.16
56084;BME280;41958;52.416;13.428;2022-09-09T08:55:50;100610.47;;;19.32;85.55
56084;BME280;41958;52.416;13.428;2022-09-09T08:58:21;100618.44;;;19.48;87.65
56084;BME280;41958;52.416;13.428;2022-09-09T09:01:16;100603.31;;;19.73;87.33
56084;BME280;41958;52.416;13.428;2022-09-09T09:06:54;100606.22;;;20.14;84.02
56084;BME280;41958;52.416;13.428;2022-09-09T09:10:31;100613.50;;;20.57;83.19
56084;BME280;41958;52.416;13.428;2022-09-09T09:12:35;100618.31;;;20.60;82.48
56084;BME280;41958;52.416;13.428;2022-09-09T09:15:15;100611.72;;;21.05;79.17
56084;BME280;41958;52.416;13.428;2022-09-09T09:17:42;100607.06;;;21.49;81.04
56084;BME280;41958;52.416;13.428;2022-09-09T09:20:12;100608.72;;;21.47;79.68
56084;BME280;41958;52.416;13.428;2022-09-09T09:22:47;100616.97;;;21.37;77.13
56084;BME280;41958;52.416;13.428;2022-09-09T09:27:58;100608.22;;;21.83;77.47
56084;BME280;41958;52.416;13.428;2022-09-09T09:30:29;100607.59;;;21.95;74.66
56084;BME280;41958;52.416;13.428;2022-09-09T09:33:00;100597.31;;;22.01;72.01
56084;BME280;41958;52.416;13.428;2022-09-09T09:35:28;100589.13;;;22.27;73.87
56084;BME280;41958;52.416;13.428;2022-09-09T09:37:53;100602.56;;;22.50;73.70
56084;BME280;41958;52.416;13.428;2022-09-09T09:40:20;100596.06;;;22.50;71.44
56084;BME280;41958;52.416;13.428;2022-09-09T09:42:56;100601.09;;;21.95;74.76
56084;BME280;41958;52.416;13.428;2022-09-09T09:45:32;100603.06;;;22.21;74.34
56084;BME280;41958;52.416;13.428;2022-09-09T09:48:08;100605.84;;;22.49;73.28
56084;BME280;41958;52.416;13.428;2022-09-09T09:50:33;100605.59;;;22.63;73.06
56084;BME280;41958;52.416;13.428;2022-09-09T09:53:03;100598.44;;;22.75;70.02
56084;BME280;41958;52.416;13.428;2022-09-09T09:55:33;100599.91;;;22.83;70.66
56084;BME280;41958;52.416;13.428;2022-09-09T09:58:06;100594.31;;;22.76;71.52
56084;BME280;41958;52.416;13.428;2022-09-09T10:00:48;100596.44;;;22.52;70.93
56084;BME280;41958;52.416;13.428;2022-09-09T10:03:22;100602.34;;;22.41;69.58
56084;BME280;41958;52.416;13.428;2022-09-09T10:05:47;100597.41;;;21.98;73.42
56084;BME280;41958;52.416;13.428;2022-09-09T10:08:15;100610.84;;;22.65;71.88
56084;BME280;41958;52.416;13.428;2022-09-09T10:11:10;100608.72;;;23.09;69.19
56084;BME280;41958;52.416;13.428;2022-09-09T10:16:51;100608.97;;;23.18;70.17
56084;BME280;41958;52.416;13.428;2022-09-09T10:19:30;100609.81;;;22.95;67.85
56084;BME280;41958;52.416;13.428;2022-09-09T10:22:04;100612.03;;;22.87;69.33
56084;BME280;41958;52.416;13.428;2022-09-09T10:30:07;100612.81;;;22.68;72.62
56084;BME280;41958;52.416;13.428;2022-09-09T10:35:52;100610.69;;;22.52;72.62
56084;BME280;41958;52.416;13.428;2022-09-09T10:38:30;100614.59;;;22.38;71.42
56084;BME280;41958;52.416;13.428;2022-09-09T10:41:16;100612.28;;;22.53;71.57
56084;BME280;41958;52.416;13.428;2022-09-09T10:49:08;100613.75;;;22.81;71.09
56084;BME280;41958;52.416;13.428;2022-09-09T10:52:09;100604.06;;;23.19;71.84
56084;BME280;41958;52.416;13.428;2022-09-09T11:00:01;100612.59;;;23.19;69.12
56084;BME280;41958;52.416;13.428;2022-09-09T11:02:31;100606.31;;;23.07;66.94
56084;BME280;41958;52.416;13.428;2022-09-09T11:05:03;100601.50;;;22.84;68.72
56084;BME280;41958;52.416;13.428;2022-09-09T11:07:42;100604.56;;;22.73;68.94
56084;BME280;41958;52.416;13.428;2022-09-09T11:10:22;100607.13;;;22.88;68.92
56084;BME280;41958;52.416;13.428;2022-09-09T11:12:50;100604.25;;;22.88;68.46
56084;BME280;41958;52.416;13.428;2022-09-09T11:15:22;100605.50;;;22.87;70.28
56084;BME280;41958;52.416;13.428;2022-09-09T11:17:53;100600.09;;;23.13;71.14
56084;BME280;41958;52.416;13.428;2022-09-09T11:20:22;100600.75;;;23.20;69.75
56084;BME280;41958;52.416;13.428;2022-09-09T11:23:05;100602.56;;;23.11;67.87
56084;BME280;41958;52.416;13.428;2022-09-09T11:25:39;100608.50;;;22.80;68.62
56084;BME280;41958;52.416;13.428;2022-09-09T11:33:47;100601.06;;;22.66;69.99
56084;BME280;41958;52.416;13.428;2022-09-09T11:36:30;100602.81;;;22.80;68.11
56084;BME280;41958;52.416;13.428;2022-09-09T11:39:26;100603.00;;;23.09;68.86
56084;BME280;41958;52.416;13.428;2022-09-09T11:42:16;100601.13;;;23.22;64.59
56084;BME280;41958;52.416;13.428;2022-09-09T11:44:42;100605.81;;;23.13;65.28
56084;BME280;41958;52.416;13.428;2022-09-09T11:47:26;100591.75;;;23.22;65.62
56084;BME280;41958;52.416;13.428;2022-09-09T11:50:07;100593.91;;;23.34;66.40
56084;BME280;41958;52.416;13.428;2022-09-09T11:52:45;100587.28;;;23.21;65.80
56084;BME280;41958;52.416;13.428;2022-09-09T11:55:32;100582.47;;;23.18;66.02
56084;BME280;41958;52.416;13.428;2022-09-09T11:58:06;100585.00;;;23.32;62.84
56084;BME280;41958;52.416;13.428;2022-09-09T12:00:42;100579.34;;;23.49;62.49
56084;BME280;41958;52.416;13.428;2022-09-09T12:03:31;100584.44;;;23.74;63.96
56084;BME280;41958;52.416;13.428;2022-09-09T12:06:09;100570.19;;;23.74;63.11
56084;BME280;41958;52.416;13.428;2022-09-09T12:08:36;100572.69;;;23.88;63.40
56084;BME280;41958;52.416;13.428;2022-09-09T12:11:05;100572.69;;;23.88;59.55
56084;BME280;41958;52.416;13.428;2022-09-09T12:13:30;100558.59;;;23.98;61.33
56084;BME280;41958;52.416;13.428;2022-09-09T12:15:58;100561.69;;;23.87;60.84
56084;BME280;41958;52.416;13.428;2022-09-09T12:18:26;100559.56;;;24.07;58.50
56084;BME280;41958;52.416;13.428;2022-09-09T12:21:04;100556.69;;;24.07;58.78
56084;BME280;41958;52.416;13.428;2022-09-09T12:23:55;100551.50;;;23.86;61.67
56084;BME280;41958;52.416;13.428;2022-09-09T12:26:31;100555.34;;;23.79;59.60
56084;BME280;41958;52.416;13.428;2022-09-09T12:29:14;100559.47;;;23.78;57.95
56084;BME280;41958;52.416;13.428;2022-09-09T12:32:09;100551.91;;;23.71;59.07
56084;BME280;41958;52.416;13.428;2022-09-09T12:39:52;100549.91;;;23.68;59.19
56084;BME280;41958;52.416;13.428;2022-09-09T12:42:20;100544.38;;;23.78;57.59
56084;BME280;41958;52.416;13.428;2022-09-09T12:44:57;100543.06;;;23.82;58.95
56084;BME280;41958;52.416;13.428;2022-09-09T12:47:41;100536.09;;;23.83;56.30
56084;BME280;41958;52.416;13.428;2022-09-09T12:50:18;100532.91;;;23.65;60.74
56084;BME280;41958;52.416;13.428;2022-09-09T12:52:44;100549.72;;;23.43;62.83
56084;BME280;41958;52.416;13.428;2022-09-09T12:55:16;100534.88;;;23.51;58.36
56084;BME280;41958;52.416;13.428;2022-09-09T12:57:43;100552.69;;;23.55;57.71
56084;BME280;41958;52.416;13.428;2022-09-09T13:00:16;100549.31;;;23.77;59.33
56084;BME280;41958;52.416;13.428;2022-09-09T13:02:50;100557.78;;;23.81;59.30
56084;BME280;41958;52.416;13.428;2022-09-09T13:05:19;100551.38;;;23.93;56.33
56084;BME280;41958;52.416;13.428;2022-09-09T13:07:45;100555.53;;;24.05;55.97
56084;BME280;41958;52.416;13.428;2022-09-09T13:10:11;100552.25;;;23.90;58.44
56084;BME280;41958;52.416;13.428;2022-09-09T13:12:38;100553.66;;;24.15;57.67
56084;BME280;41958;52.416;13.428;2022-09-09T13:15:04;100548.69;;;24.02;58.10
56084;BME280;41958;52.416;13.428;2022-09-09T13:17:35;100556.44;;;24.02;60.29
56084;BME280;41958;52.416;13.428;2022-09-09T13:20:01;100551.50;;;23.86;59.42
56084;BME280;41958;52.416;13.428;2022-09-09T13:22:36;100535.50;;;23.92;56.30
56084;BME280;41958;52.416;13.428;2022-09-09T13:27:39;100542.44;;;23.91;59.32
56084;BME280;41958;52.416;13.428;2022-09-09T13:30:37;100529.06;;;23.71;57.56
56084;BME280;41958;52.416;13.428;2022-09-09T13:33:20;100526.56;;;23.73;58.84
56084;BME280;41958;52.416;13.428;2022-09-09T13:38:18;100531.28;;;23.64;57.61
56084;BME280;41958;52.416;13.428;2022-09-09T13:40:58;100525.59;;;23.64;60.83
56084;BME280;41958;52.416;13.428;2022-09-09T13:43:25;100528.91;;;23.62;60.43
56084;BME280;41958;52.416;13.428;2022-09-09T13:46:00;100515.16;;;23.40;60.45
56084;BME280;41958;52.416;13.428;2022-09-09T13:48:26;100530.22;;;23.41;60.35
56084;BME280;41958;52.416;13.428;2022-09-09T13:51:00;100523.91;;;23.33;59.40
56084;BME280;41958;52.416;13.428;2022-09-09T13:53:27;100532.69;;;23.22;60.31
56084;BME280;41958;52.416;13.428;2022-09-09T13:55:53;100533.56;;;23.19;63.17
56084;BME280;41958;52.416;13.428;2022-09-09T13:58:18;100527.94;;;22.79;64.96
56084;BME280;41958;52.416;13.428;2022-09-09T14:00:44;100535.75;;;22.75;67.44
56084;BME280;41958;52.416;13.428;2022-09-09T14:03:10;100533.69;;;22.76;68.22
56084;BME280;41958;52.416;13.428;2022-09-09T14:05:36;100537.88;;;22.71;69.70